sensor_id;sensor_type;location;lat;lon;timestamp;temperature;humidity
46378;DHT22;32083;47.360;9.650;2023-01-30T00:01:00;-2.70;99.90
46378;DHT22;32083;47.360;9.650;2023-01-30T00:03:26;-2.70;99.90
46378;DHT22;32083;47.360;9.650;2023-01-30T00:05:53;-2.70;99.90
46378;DHT22;32083;47.360;9.650;2023-01-30T00:08:20;-2.70;99.90
46378;DHT22;32083;47.360;9.650;2023-01-30T00:10:47;-2.60;99.90
46378;DHT22;32083;47.360;9.650;2023-01-30T00:13:13;-2.70;99.90
46378;DHT22;32083;47.360;9.650;2023-01-30T00:15:40;-2.70;99.90
46378;DHT22;32083;47.360;9.650;2023-01-30T00:18:07;-2.60;99.90
46378;DHT22;32083;47.360;9.650;2023-01-30T00:20:33;-2.70;99.90
46378;DHT22;32083;47.360;9.650;2023-01-30T00:22:59;-2.70;99.90
46378;DHT22;32083;47.360;9.650;2023-01-30T00:25:27;-2.60;99.90
46378;DHT22;32083;47.360;9.650;2023-01-30T00:27:52;-2.60;99.90
46378;DHT22;32083;47.360;9.650;2023-01-30T00:30:19;-2.70;99.90
46378;DHT22;32083;47.360;9.650;2023-01-30T00:32:44;-2.70;99.90
46378;DHT22;32083;47.360;9.650;2023-01-30T00:35:12;-2.70;99.90
46378;DHT22;32083;47.360;9.650;2023-01-30T00:37:38;-2.70;99.90
46378;DHT22;32083;47.360;9.650;2023-01-30T00:40:05;-2.70;99.90
46378;DHT22;32083;47.360;9.650;2023-01-30T00:42:31;-2.80;99.90
46378;DHT22;32083;47.360;9.650;2023-01-30T00:45:15;-2.70;99.90
46378;DHT22;32083;47.360;9.650;2023-01-30T00:47:59;-2.80;99.90
46378;DHT22;32083;47.360;9.650;2023-01-30T00:50:25;-2.80;99.90
46378;DHT22;32083;47.360;9.650;2023-01-30T00:53:13;-2.80;99.90
46378;DHT22;32083;47.360;9.650;2023-01-30T00:55:43;-2.80;99.90
46378;DHT22;32083;47.360;9.650;2023-01-30T00:58:10;-2.80;99.90
46378;DHT22;32083;47.360;9.650;2023-01-30T01:00:36;-2.70;99.90
46378;DHT22;32083;47.360;9.650;2023-01-30T01:03:06;-2.70;99.90
46378;DHT22;32083;47.360;9.650;2023-01-30T01:05:31;-2.80;99.90
46378;DHT22;32083;47.360;9.650;2023-01-30T01:07:57;-2.80;99.90
46378;DHT22;32083;47.360;9.650;2023-01-30T01:10:23;-2.80;99.90
46378;DHT22;32083;47.360;9.650;2023-01-30T01:12:49;-2.80;99.90
46378;DHT22;32083;47.360;9.650;2023-01-30T01:15:17;-2.80;99.90
46378;DHT22;32083;47.360;9.650;2023-01-30T01:17:43;-2.80;99.90
46378;DHT22;32083;47.360;9.650;2023-01-30T01:20:09;-2.80;99.90
46378;DHT22;32083;47.360;9.650;2023-01-30T01:22:35;-2.80;99.90
46378;DHT22;32083;47.360;9.650;2023-01-30T01:25:01;-2.80;99.90
46378;DHT22;32083;47.360;9.650;2023-01-30T01:27:28;-2.80;99.90
46378;DHT22;32083;47.360;9.650;2023-01-30T01:29:54;-2.80;99.90
46378;DHT22;32083;47.360;9.650;2023-01-30T01:32:21;-2.80;99.90
46378;DHT22;32083;47.360;9.650;2023-01-30T01:34:46;-2.80;99.90
46378;DHT22;32083;47.360;9.650;2023-01-30T01:37:12;-2.80;99.90
46378;DHT22;32083;47.360;9.650;2023-01-30T01:39:38;-2.80;99.90
46378;DHT22;32083;47.360;9.650;2023-01-30T01:42:25;-2.80;99.90
46378;DHT22;32083;47.360;9.650;2023-01-30T01:47:57;-2.80;99.90
46378;DHT22;32083;47.360;9.650;2023-01-30T01:50:48;-2.90;99.90
46378;DHT22;32083;47.360;9.650;2023-01-30T01:53:14;-2.90;99.90
46378;DHT22;32083;47.360;9.650;2023-01-30T01:55:42;-3.00;99.90
46378;DHT22;32083;47.360;9.650;2023-01-30T01:58:27;-3.00;99.90
46378;DHT22;32083;47.360;9.650;2023-01-30T02:00:56;-3.10;99.90
46378;DHT22;32083;47.360;9.650;2023-01-30T02:03:24;-3.10;99.90
46378;DHT22;32083;47.360;9.650;2023-01-30T02:05:52;-3.10;99.90
46378;DHT22;32083;47.360;9.650;2023-01-30T02:08:28;-3.20;99.90
46378;DHT22;32083;47.360;9.650;2023-01-30T02:11:02;-3.20;99.90
46378;DHT22;32083;47.360;9.650;2023-01-30T02:13:30;-3.20;99.90
46378;DHT22;32083;47.360;9.650;2023-01-30T02:15:58;-3.20;99.90
46378;DHT22;32083;47.360;9.650;2023-01-30T02:18:25;-3.30;99.90
46378;DHT22;32083;47.360;9.650;2023-01-30T02:32:33;-3.30;99.90
46378;DHT22;32083;47.360;9.650;2023-01-30T02:37:50;-3.30;99.90
46378;DHT22;32083;47.360;9.650;2023-01-30T02:40:35;-3.30;99.90
46378;DHT22;32083;47.360;9.650;2023-01-30T02:43:25;-3.40;99.90
46378;DHT22;32083;47.360;9.650;2023-01-30T02:46:10;-3.50;99.90
46378;DHT22;32083;47.360;9.650;2023-01-30T02:51:25;-3.50;99.90
46378;DHT22;32083;47.360;9.650;2023-01-30T02:53:53;-3.50;99.90
46378;DHT22;32083;47.360;9.650;2023-01-30T02:56:19;-3.50;99.90
46378;DHT22;32083;47.360;9.650;2023-01-30T02:58:48;-3.50;99.90
46378;DHT22;32083;47.360;9.650;2023-01-30T03:07:25;-3.50;99.90
46378;DHT22;32083;47.360;9.650;2023-01-30T03:15:23;-3.50;99.90
46378;DHT22;32083;47.360;9.650;2023-01-30T03:17:50;-3.40;99.90
46378;DHT22;32083;47.360;9.650;2023-01-30T03:20:18;-3.40;99.90
46378;DHT22;32083;47.360;9.650;2023-01-30T03:22:44;-3.40;99.90
46378;DHT22;32083;47.360;9.650;2023-01-30T03:25:14;-3.40;99.90
46378;DHT22;32083;47.360;9.650;2023-01-30T03:27:40;-3.40;99.90
46378;DHT22;32083;47.360;9.650;2023-01-30T03:30:08;-3.40;99.90
46378;DHT22;32083;47.360;9.650;2023-01-30T03:32:34;-3.50;99.90
46378;DHT22;32083;47.360;9.650;2023-01-30T03:35:00;-3.40;99.90
46378;DHT22;32083;47.360;9.650;2023-01-30T03:37:26;-3.40;99.90
46378;DHT22;32083;47.360;9.650;2023-01-30T03:39:52;-3.40;99.90
46378;DHT22;32083;47.360;9.650;2023-01-30T03:42:18;-3.50;99.90
46378;DHT22;32083;47.360;9.650;2023-01-30T03:44:43;-3.40;99.90
46378;DHT22;32083;47.360;9.650;2023-01-30T03:47:09;-3.40;99.90
46378;DHT22;32083;47.360;9.650;2023-01-30T03:49:35;-3.40;99.90
46378;DHT22;32083;47.360;9.650;2023-01-30T03:52:00;-3.30;99.90
46378;DHT22;32083;47.360;9.650;2023-01-30T03:54:26;-3.30;99.90
46378;DHT22;32083;47.360;9.650;2023-01-30T03:56:51;-3.40;99.90
46378;DHT22;32083;47.360;9.650;2023-01-30T03:59:17;-3.40;99.90
46378;DHT22;32083;47.360;9.650;2023-01-30T04:01:43;-3.50;99.90
46378;DHT22;32083;47.360;9.650;2023-01-30T04:04:08;-3.60;99.90
46378;DHT22;32083;47.360;9.650;2023-01-30T04:06:34;-3.50;99.90
46378;DHT22;32083;47.360;9.650;2023-01-30T04:09:00;-3.60;99.90
46378;DHT22;32083;47.360;9.650;2023-01-30T04:11:25;-3.60;99.90
46378;DHT22;32083;47.360;9.650;2023-01-30T04:13:51;-3.60;99.90
46378;DHT22;32083;47.360;9.650;2023-01-30T04:16:21;-3.50;99.90
46378;DHT22;32083;47.360;9.650;2023-01-30T04:18:47;-3.50;99.90
46378;DHT22;32083;47.360;9.650;2023-01-30T04:21:13;-3.40;99.90
46378;DHT22;32083;47.360;9.650;2023-01-30T04:23:39;-3.40;99.90
46378;DHT22;32083;47.360;9.650;2023-01-30T04:26:06;-3.40;99.90
46378;DHT22;32083;47.360;9.650;2023-01-30T04:28:31;-3.30;99.90
46378;DHT22;32083;47.360;9.650;2023-01-30T04:30:57;-3.30;99.90
46378;DHT22;32083;47.360;9.650;2023-01-30T04:33:23;-3.30;99.90
46378;DHT22;32083;47.360;9.650;2023-01-30T04:35:56;-3.30;99.90
46378;DHT22;32083;47.360;9.650;2023-01-30T04:38:23;-3.20;99.90
46378;DHT22;32083;47.360;9.650;2023-01-30T04:40:50;-3.20;99.90
46378;DHT22;32083;47.360;9.650;2023-01-30T04:43:17;-3.10;99.90
46378;DHT22;32083;47.360;9.650;2023-01-30T04:45:44;-3.10;99.90
46378;DHT22;32083;47.360;9.650;2023-01-30T04:48:10;-3.10;99.90
46378;DHT22;32083;47.360;9.650;2023-01-30T04:50:36;-3.10;99.90
46378;DHT22;32083;47.360;9.650;2023-01-30T04:53:11;-3.00;99.90
46378;DHT22;32083;47.360;9.650;2023-01-30T04:55:37;-3.00;99.90
46378;DHT22;32083;47.360;9.650;2023-01-30T04:58:05;-3.00;99.90
46378;DHT22;32083;47.360;9.650;2023-01-30T05:00:35;-3.10;99.90
46378;DHT22;32083;47.360;9.650;2023-01-30T05:03:04;-3.10;99.90
46378;DHT22;32083;47.360;9.650;2023-01-30T05:05:41;-3.00;99.90
46378;DHT22;32083;47.360;9.650;2023-01-30T05:08:21;-3.00;99.90
46378;DHT22;32083;47.360;9.650;2023-01-30T05:10:47;-3.00;99.90
46378;DHT22;32083;47.360;9.650;2023-01-30T05:13:15;-3.00;99.90
46378;DHT22;32083;47.360;9.650;2023-01-30T05:15:44;-2.90;99.90
46378;DHT22;32083;47.360;9.650;2023-01-30T05:18:13;-2.90;99.90
46378;DHT22;32083;47.360;9.650;2023-01-30T05:20:38;-2.90;99.90
46378;DHT22;32083;47.360;9.650;2023-01-30T05:23:04;-2.90;99.90
46378;DHT22;32083;47.360;9.650;2023-01-30T05:25:30;-2.90;99.90
46378;DHT22;32083;47.360;9.650;2023-01-30T05:27:55;-2.80;99.90
46378;DHT22;32083;47.360;9.650;2023-01-30T05:30:21;-2.80;99.90
46378;DHT22;32083;47.360;9.650;2023-01-30T05:32:50;-2.80;99.90
46378;DHT22;32083;47.360;9.650;2023-01-30T05:35:16;-2.80;99.90
46378;DHT22;32083;47.360;9.650;2023-01-30T05:37:42;-2.80;99.90
46378;DHT22;32083;47.360;9.650;2023-01-30T05:40:08;-2.90;99.90
46378;DHT22;32083;47.360;9.650;2023-01-30T05:42:34;-2.90;99.90
46378;DHT22;32083;47.360;9.650;2023-01-30T05:44:59;-2.90;99.90
46378;DHT22;32083;47.360;9.650;2023-01-30T05:47:25;-2.90;99.90
46378;DHT22;32083;47.360;9.650;2023-01-30T05:49:51;-2.90;99.90
46378;DHT22;32083;47.360;9.650;2023-01-30T05:52:17;-2.90;99.90
46378;DHT22;32083;47.360;9.650;2023-01-30T05:54:43;-2.80;99.90
46378;DHT22;32083;47.360;9.650;2023-01-30T05:57:08;-2.80;99.90
46378;DHT22;32083;47.360;9.650;2023-01-30T05:59:34;-2.80;99.90
46378;DHT22;32083;47.360;9.650;2023-01-30T06:02:00;-2.70;99.90
46378;DHT22;32083;47.360;9.650;2023-01-30T06:04:26;-2.70;99.90
46378;DHT22;32083;47.360;9.650;2023-01-30T06:06:52;-2.60;99.90
46378;DHT22;32083;47.360;9.650;2023-01-30T06:09:19;-2.60;99.90
46378;DHT22;32083;47.360;9.650;2023-01-30T06:11:45;-2.60;99.90
46378;DHT22;32083;47.360;9.650;2023-01-30T06:14:14;-2.70;99.90
46378;DHT22;32083;47.360;9.650;2023-01-30T06:16:42;-2.70;99.90
46378;DHT22;32083;47.360;9.650;2023-01-30T06:19:08;-2.70;99.90
46378;DHT22;32083;47.360;9.650;2023-01-30T06:21:33;-2.70;99.90
46378;DHT22;32083;47.360;9.650;2023-01-30T06:23:59;-2.70;99.90
46378;DHT22;32083;47.360;9.650;2023-01-30T06:26:25;-2.80;99.90
46378;DHT22;32083;47.360;9.650;2023-01-30T06:28:50;-2.90;99.90
46378;DHT22;32083;47.360;9.650;2023-01-30T06:31:16;-2.90;99.90
46378;DHT22;32083;47.360;9.650;2023-01-30T06:33:44;-3.00;99.90
46378;DHT22;32083;47.360;9.650;2023-01-30T06:36:11;-3.00;99.90
46378;DHT22;32083;47.360;9.650;2023-01-30T06:38:37;-3.00;99.90
46378;DHT22;32083;47.360;9.650;2023-01-30T06:41:03;-3.00;99.90
46378;DHT22;32083;47.360;9.650;2023-01-30T06:43:29;-3.20;99.90
46378;DHT22;32083;47.360;9.650;2023-01-30T06:45:58;-3.40;99.90
46378;DHT22;32083;47.360;9.650;2023-01-30T06:48:26;-3.30;99.90
46378;DHT22;32083;47.360;9.650;2023-01-30T06:50:51;-3.20;99.90
46378;DHT22;32083;47.360;9.650;2023-01-30T06:53:18;-3.20;99.90
46378;DHT22;32083;47.360;9.650;2023-01-30T06:55:44;-3.20;99.90
46378;DHT22;32083;47.360;9.650;2023-01-30T06:58:12;-3.10;99.90
46378;DHT22;32083;47.360;9.650;2023-01-30T07:00:39;-3.10;99.90
46378;DHT22;32083;47.360;9.650;2023-01-30T07:03:12;-3.20;99.90
46378;DHT22;32083;47.360;9.650;2023-01-30T07:05:39;-3.20;99.90
46378;DHT22;32083;47.360;9.650;2023-01-30T07:08:05;-3.20;99.90
46378;DHT22;32083;47.360;9.650;2023-01-30T07:10:31;-3.20;99.90
46378;DHT22;32083;47.360;9.650;2023-01-30T07:12:57;-3.20;99.90
46378;DHT22;32083;47.360;9.650;2023-01-30T07:15:23;-3.30;99.90
46378;DHT22;32083;47.360;9.650;2023-01-30T07:17:49;-3.30;99.90
46378;DHT22;32083;47.360;9.650;2023-01-30T07:20:15;-3.30;99.90
46378;DHT22;32083;47.360;9.650;2023-01-30T07:22:40;-3.30;99.90
46378;DHT22;32083;47.360;9.650;2023-01-30T07:25:06;-3.30;99.90
46378;DHT22;32083;47.360;9.650;2023-01-30T07:27:33;-3.20;99.90
46378;DHT22;32083;47.360;9.650;2023-01-30T07:29:58;-3.10;99.90
46378;DHT22;32083;47.360;9.650;2023-01-30T07:32:24;-3.10;99.90
46378;DHT22;32083;47.360;9.650;2023-01-30T07:34:50;-3.00;99.90
46378;DHT22;32083;47.360;9.650;2023-01-30T07:37:15;-3.00;99.90
46378;DHT22;32083;47.360;9.650;2023-01-30T07:39:41;-3.00;99.90
46378;DHT22;32083;47.360;9.650;2023-01-30T07:42:07;-3.00;99.90
46378;DHT22;32083;47.360;9.650;2023-01-30T07:44:35;-3.00;99.90
46378;DHT22;32083;47.360;9.650;2023-01-30T07:47:01;-2.90;99.90
46378;DHT22;32083;47.360;9.650;2023-01-30T07:49:27;-2.90;99.90
46378;DHT22;32083;47.360;9.650;2023-01-30T07:51:53;-2.80;99.90
46378;DHT22;32083;47.360;9.650;2023-01-30T07:54:18;-2.80;99.90
46378;DHT22;32083;47.360;9.650;2023-01-30T07:56:44;-2.80;99.90
46378;DHT22;32083;47.360;9.650;2023-01-30T07:59:10;-2.80;99.90
46378;DHT22;32083;47.360;9.650;2023-01-30T08:01:36;-2.90;99.90
46378;DHT22;32083;47.360;9.650;2023-01-30T08:04:02;-3.00;99.90
46378;DHT22;32083;47.360;9.650;2023-01-30T08:06:28;-3.00;99.90
46378;DHT22;32083;47.360;9.650;2023-01-30T08:08:54;-3.00;99.90
46378;DHT22;32083;47.360;9.650;2023-01-30T08:11:19;-3.00;99.90
46378;DHT22;32083;47.360;9.650;2023-01-30T08:13:45;-2.90;99.90
46378;DHT22;32083;47.360;9.650;2023-01-30T08:16:11;-2.80;99.90
46378;DHT22;32083;47.360;9.650;2023-01-30T08:18:37;-2.80;99.90
46378;DHT22;32083;47.360;9.650;2023-01-30T08:21:04;-2.60;99.90
46378;DHT22;32083;47.360;9.650;2023-01-30T08:23:31;-2.40;99.90
46378;DHT22;32083;47.360;9.650;2023-01-30T08:26:04;-2.30;99.90
46378;DHT22;32083;47.360;9.650;2023-01-30T08:28:31;-2.10;99.90
46378;DHT22;32083;47.360;9.650;2023-01-30T08:30:57;-2.10;99.90
46378;DHT22;32083;47.360;9.650;2023-01-30T08:33:23;-2.00;99.90
46378;DHT22;32083;47.360;9.650;2023-01-30T08:35:49;-1.90;99.90
46378;DHT22;32083;47.360;9.650;2023-01-30T08:38:15;-1.80;99.90
46378;DHT22;32083;47.360;9.650;2023-01-30T08:40:41;-1.60;99.90
46378;DHT22;32083;47.360;9.650;2023-01-30T08:43:07;-1.50;99.90
46378;DHT22;32083;47.360;9.650;2023-01-30T08:45:33;-1.40;99.90
46378;DHT22;32083;47.360;9.650;2023-01-30T08:48:03;-1.30;99.90
46378;DHT22;32083;47.360;9.650;2023-01-30T08:50:32;-1.20;99.90
46378;DHT22;32083;47.360;9.650;2023-01-30T08:53:06;-1.10;99.90
46378;DHT22;32083;47.360;9.650;2023-01-30T08:55:32;-1.10;99.90
46378;DHT22;32083;47.360;9.650;2023-01-30T08:57:58;-1.00;99.90
46378;DHT22;32083;47.360;9.650;2023-01-30T09:00:24;-1.00;99.90
46378;DHT22;32083;47.360;9.650;2023-01-30T09:02:55;-1.10;99.90
46378;DHT22;32083;47.360;9.650;2023-01-30T09:05:21;-1.00;99.90
46378;DHT22;32083;47.360;9.650;2023-01-30T09:07:47;-0.90;99.90
46378;DHT22;32083;47.360;9.650;2023-01-30T09:10:13;-0.80;99.90
46378;DHT22;32083;47.360;9.650;2023-01-30T09:12:38;-0.80;99.90
46378;DHT22;32083;47.360;9.650;2023-01-30T09:15:05;-0.80;99.90
46378;DHT22;32083;47.360;9.650;2023-01-30T09:17:31;-0.80;99.90
46378;DHT22;32083;47.360;9.650;2023-01-30T09:19:56;-0.70;99.90
46378;DHT22;32083;47.360;9.650;2023-01-30T09:22:22;-0.70;99.90
46378;DHT22;32083;47.360;9.650;2023-01-30T09:24:48;-0.70;99.90
46378;DHT22;32083;47.360;9.650;2023-01-30T09:27:13;-0.60;99.90
46378;DHT22;32083;47.360;9.650;2023-01-30T09:29:39;-0.60;99.90
46378;DHT22;32083;47.360;9.650;2023-01-30T09:32:05;-0.50;99.90
46378;DHT22;32083;47.360;9.650;2023-01-30T09:34:30;-0.50;99.90
46378;DHT22;32083;47.360;9.650;2023-01-30T09:36:57;-0.40;99.90
46378;DHT22;32083;47.360;9.650;2023-01-30T09:39:27;-0.20;99.90
46378;DHT22;32083;47.360;9.650;2023-01-30T09:44:50;-0.20;99.90
46378;DHT22;32083;47.360;9.650;2023-01-30T09:47:26;-0.10;99.90
46378;DHT22;32083;47.360;9.650;2023-01-30T09:49:56;-0.10;99.90
46378;DHT22;32083;47.360;9.650;2023-01-30T09:55:16;0.20;99.90
46378;DHT22;32083;47.360;9.650;2023-01-30T09:57:44;0.40;99.90
46378;DHT22;32083;47.360;9.650;2023-01-30T10:00:20;0.50;99.90
46378;DHT22;32083;47.360;9.650;2023-01-30T10:05:16;0.60;99.90
46378;DHT22;32083;47.360;9.650;2023-01-30T10:07:48;0.60;99.90
46378;DHT22;32083;47.360;9.650;2023-01-30T10:16:16;0.70;99.90
46378;DHT22;32083;47.360;9.650;2023-01-30T10:19:12;0.80;99.90
46378;DHT22;32083;47.360;9.650;2023-01-30T10:26:48;0.90;99.90
46378;DHT22;32083;47.360;9.650;2023-01-30T10:29:18;0.90;99.90
46378;DHT22;32083;47.360;9.650;2023-01-30T10:32:02;0.90;99.90
46378;DHT22;32083;47.360;9.650;2023-01-30T10:34:39;1.00;99.90
46378;DHT22;32083;47.360;9.650;2023-01-30T10:37:21;1.00;99.90
46378;DHT22;32083;47.360;9.650;2023-01-30T10:42:20;1.10;99.90
46378;DHT22;32083;47.360;9.650;2023-01-30T10:44:48;1.10;99.90
46378;DHT22;32083;47.360;9.650;2023-01-30T10:47:40;1.20;99.90
46378;DHT22;32083;47.360;9.650;2023-01-30T10:50:22;1.30;99.90
46378;DHT22;32083;47.360;9.650;2023-01-30T10:55:55;1.40;99.90
46378;DHT22;32083;47.360;9.650;2023-01-30T10:58:35;1.40;99.90
46378;DHT22;32083;47.360;9.650;2023-01-30T11:01:06;1.50;99.90
46378;DHT22;32083;47.360;9.650;2023-01-30T11:03:49;1.50;99.90
46378;DHT22;32083;47.360;9.650;2023-01-30T11:06:23;1.60;99.90
46378;DHT22;32083;47.360;9.650;2023-01-30T11:08:51;1.60;99.90
46378;DHT22;32083;47.360;9.650;2023-01-30T11:13:46;1.70;99.90
46378;DHT22;32083;47.360;9.650;2023-01-30T11:16:14;1.70;99.90
46378;DHT22;32083;47.360;9.650;2023-01-30T11:18:48;1.70;99.90
46378;DHT22;32083;47.360;9.650;2023-01-30T11:21:35;1.80;99.90
46378;DHT22;32083;47.360;9.650;2023-01-30T11:24:21;1.80;99.90
46378;DHT22;32083;47.360;9.650;2023-01-30T11:26:48;1.80;99.90
46378;DHT22;32083;47.360;9.650;2023-01-30T11:29:29;1.90;99.90
46378;DHT22;32083;47.360;9.650;2023-01-30T11:31:55;2.00;99.90
46378;DHT22;32083;47.360;9.650;2023-01-30T11:34:23;2.00;99.90
46378;DHT22;32083;47.360;9.650;2023-01-30T11:36:49;2.10;99.90
46378;DHT22;32083;47.360;9.650;2023-01-30T11:41:56;2.20;99.90
46378;DHT22;32083;47.360;9.650;2023-01-30T11:44:32;2.20;99.90
46378;DHT22;32083;47.360;9.650;2023-01-30T11:47:08;2.20;99.90
46378;DHT22;32083;47.360;9.650;2023-01-30T11:49:42;2.30;99.90
46378;DHT22;32083;47.360;9.650;2023-01-30T11:52:11;2.40;99.90
46378;DHT22;32083;47.360;9.650;2023-01-30T11:54:40;2.40;99.90
46378;DHT22;32083;47.360;9.650;2023-01-30T11:57:12;2.50;99.90
46378;DHT22;32083;47.360;9.650;2023-01-30T11:59:42;2.50;99.70
46378;DHT22;32083;47.360;9.650;2023-01-30T12:02:29;2.60;99.70
46378;DHT22;32083;47.360;9.650;2023-01-30T12:05:03;2.60;99.80
46378;DHT22;32083;47.360;9.650;2023-01-30T12:07:32;2.70;99.90
46378;DHT22;32083;47.360;9.650;2023-01-30T12:09:58;2.70;99.40
46378;DHT22;32083;47.360;9.650;2023-01-30T12:12:43;2.80;99.60
46378;DHT22;32083;47.360;9.650;2023-01-30T12:18:02;2.90;99.20
46378;DHT22;32083;47.360;9.650;2023-01-30T12:23:39;3.10;99.80
46378;DHT22;32083;47.360;9.650;2023-01-30T12:26:12;3.20;98.90
46378;DHT22;32083;47.360;9.650;2023-01-30T12:31:32;3.30;97.60
46378;DHT22;32083;47.360;9.650;2023-01-30T12:34:02;3.40;97.30
46378;DHT22;32083;47.360;9.650;2023-01-30T12:36:36;3.40;97.10
46378;DHT22;32083;47.360;9.650;2023-01-30T12:45:23;3.50;97.80
46378;DHT22;32083;47.360;9.650;2023-01-30T12:53:55;3.90;94.90
46378;DHT22;32083;47.360;9.650;2023-01-30T12:56:38;4.00;94.60
46378;DHT22;32083;47.360;9.650;2023-01-30T12:59:18;4.10;94.00
46378;DHT22;32083;47.360;9.650;2023-01-30T13:07:11;4.40;93.80
46378;DHT22;32083;47.360;9.650;2023-01-30T13:10:15;4.40;93.40
46378;DHT22;32083;47.360;9.650;2023-01-30T13:23:41;4.50;95.30
46378;DHT22;32083;47.360;9.650;2023-01-30T13:26:16;4.50;94.70
46378;DHT22;32083;47.360;9.650;2023-01-30T13:28:58;4.60;94.30
46378;DHT22;32083;47.360;9.650;2023-01-30T13:31:29;4.60;94.30
46378;DHT22;32083;47.360;9.650;2023-01-30T13:34:16;4.70;94.40
46378;DHT22;32083;47.360;9.650;2023-01-30T13:36:55;4.80;93.20
46378;DHT22;32083;47.360;9.650;2023-01-30T13:42:43;4.80;93.70
46378;DHT22;32083;47.360;9.650;2023-01-30T13:45:22;4.90;94.70
46378;DHT22;32083;47.360;9.650;2023-01-30T13:48:06;4.90;95.20
46378;DHT22;32083;47.360;9.650;2023-01-30T14:02:25;5.00;95.50
46378;DHT22;32083;47.360;9.650;2023-01-30T14:04:52;5.00;96.00
46378;DHT22;32083;47.360;9.650;2023-01-30T14:07:38;5.00;96.00
46378;DHT22;32083;47.360;9.650;2023-01-30T14:10:13;5.00;95.40
46378;DHT22;32083;47.360;9.650;2023-01-30T14:12:46;5.00;95.80
46378;DHT22;32083;47.360;9.650;2023-01-30T14:20:21;5.00;96.10
46378;DHT22;32083;47.360;9.650;2023-01-30T14:22:59;5.00;96.00
46378;DHT22;32083;47.360;9.650;2023-01-30T14:33:00;4.80;96.00
46378;DHT22;32083;47.360;9.650;2023-01-30T14:35:30;4.70;96.20
46378;DHT22;32083;47.360;9.650;2023-01-30T14:38:17;4.60;96.40
46378;DHT22;32083;47.360;9.650;2023-01-30T14:46:04;4.40;97.10
46378;DHT22;32083;47.360;9.650;2023-01-30T14:59:39;4.30;96.20
46378;DHT22;32083;47.360;9.650;2023-01-30T15:13:31;4.40;96.00
46378;DHT22;32083;47.360;9.650;2023-01-30T15:30:09;4.30;95.10
46378;DHT22;32083;47.360;9.650;2023-01-30T15:32:42;4.30;95.00
46378;DHT22;32083;47.360;9.650;2023-01-30T15:37:47;4.30;96.40
46378;DHT22;32083;47.360;9.650;2023-01-30T15:40:17;4.30;96.80
46378;DHT22;32083;47.360;9.650;2023-01-30T15:48:23;4.30;96.00
46378;DHT22;32083;47.360;9.650;2023-01-30T15:50:57;4.30;97.00
46378;DHT22;32083;47.360;9.650;2023-01-30T15:53:33;4.30;96.50
46378;DHT22;32083;47.360;9.650;2023-01-30T15:56:02;4.20;96.70
46378;DHT22;32083;47.360;9.650;2023-01-30T15:58:29;4.20;96.70
46378;DHT22;32083;47.360;9.650;2023-01-30T16:00:57;4.20;96.60
46378;DHT22;32083;47.360;9.650;2023-01-30T16:03:29;4.20;96.80
46378;DHT22;32083;47.360;9.650;2023-01-30T16:05:56;4.20;97.70
46378;DHT22;32083;47.360;9.650;2023-01-30T16:08:34;4.20;96.90
46378;DHT22;32083;47.360;9.650;2023-01-30T16:11:00;4.20;97.00
46378;DHT22;32083;47.360;9.650;2023-01-30T16:13:27;4.20;96.90
46378;DHT22;32083;47.360;9.650;2023-01-30T16:16:09;4.20;96.90
46378;DHT22;32083;47.360;9.650;2023-01-30T16:18:47;4.20;97.40
46378;DHT22;32083;47.360;9.650;2023-01-30T16:21:20;4.20;97.60
46378;DHT22;32083;47.360;9.650;2023-01-30T16:23:58;4.20;97.80
46378;DHT22;32083;47.360;9.650;2023-01-30T16:26:25;4.30;98.00
46378;DHT22;32083;47.360;9.650;2023-01-30T16:29:05;4.30;98.00
46378;DHT22;32083;47.360;9.650;2023-01-30T16:31:33;4.20;97.40
46378;DHT22;32083;47.360;9.650;2023-01-30T16:33:59;4.30;97.90
46378;DHT22;32083;47.360;9.650;2023-01-30T16:38:52;4.30;98.20
46378;DHT22;32083;47.360;9.650;2023-01-30T16:41:36;4.30;98.20
46378;DHT22;32083;47.360;9.650;2023-01-30T16:44:17;4.30;98.20
46378;DHT22;32083;47.360;9.650;2023-01-30T16:47:05;4.30;98.40
46378;DHT22;32083;47.360;9.650;2023-01-30T16:52:14;4.40;98.90
46378;DHT22;32083;47.360;9.650;2023-01-30T16:54:52;4.30;99.30
46378;DHT22;32083;47.360;9.650;2023-01-30T17:03:29;4.40;99.90
46378;DHT22;32083;47.360;9.650;2023-01-30T17:06:06;4.40;99.90
46378;DHT22;32083;47.360;9.650;2023-01-30T17:11:57;4.40;99.90
46378;DHT22;32083;47.360;9.650;2023-01-30T17:14:31;4.40;99.90
46378;DHT22;32083;47.360;9.650;2023-01-30T17:17:11;4.40;99.90
46378;DHT22;32083;47.360;9.650;2023-01-30T17:19:48;4.40;99.90
46378;DHT22;32083;47.360;9.650;2023-01-30T17:22:24;4.30;99.90
46378;DHT22;32083;47.360;9.650;2023-01-30T17:24:54;4.40;99.90
46378;DHT22;32083;47.360;9.650;2023-01-30T17:27:36;4.40;99.90
46378;DHT22;32083;47.360;9.650;2023-01-30T17:30:28;4.40;99.90
46378;DHT22;32083;47.360;9.650;2023-01-30T17:33:10;4.40;99.90
46378;DHT22;32083;47.360;9.650;2023-01-30T17:35:40;4.50;99.90
46378;DHT22;32083;47.360;9.650;2023-01-30T17:38:23;4.50;99.90
46378;DHT22;32083;47.360;9.650;2023-01-30T17:40:54;4.50;99.90
46378;DHT22;32083;47.360;9.650;2023-01-30T17:43:27;4.50;99.90
46378;DHT22;32083;47.360;9.650;2023-01-30T17:45:55;4.50;99.90
46378;DHT22;32083;47.360;9.650;2023-01-30T17:48:21;4.60;99.90
46378;DHT22;32083;47.360;9.650;2023-01-30T17:50:52;4.60;99.90
46378;DHT22;32083;47.360;9.650;2023-01-30T17:53:32;4.60;99.90
46378;DHT22;32083;47.360;9.650;2023-01-30T18:00:13;4.50;99.90
46378;DHT22;32083;47.360;9.650;2023-01-30T18:02:42;4.20;99.90
46378;DHT22;32083;47.360;9.650;2023-01-30T18:05:12;4.10;99.90
46378;DHT22;32083;47.360;9.650;2023-01-30T18:07:41;3.80;99.90
46378;DHT22;32083;47.360;9.650;2023-01-30T18:10:22;3.80;99.90
46378;DHT22;32083;47.360;9.650;2023-01-30T18:12:50;3.70;99.90
46378;DHT22;32083;47.360;9.650;2023-01-30T18:15:22;3.50;99.90
46378;DHT22;32083;47.360;9.650;2023-01-30T18:17:50;3.50;99.90
46378;DHT22;32083;47.360;9.650;2023-01-30T18:20:26;3.50;99.90
46378;DHT22;32083;47.360;9.650;2023-01-30T18:22:54;3.40;99.90
46378;DHT22;32083;47.360;9.650;2023-01-30T18:25:23;3.30;99.90
46378;DHT22;32083;47.360;9.650;2023-01-30T18:27:49;3.30;99.90
46378;DHT22;32083;47.360;9.650;2023-01-30T18:30:15;3.20;99.90
46378;DHT22;32083;47.360;9.650;2023-01-30T18:32:41;3.30;99.90
46378;DHT22;32083;47.360;9.650;2023-01-30T18:35:07;3.30;99.90
46378;DHT22;32083;47.360;9.650;2023-01-30T18:37:33;3.30;99.90
46378;DHT22;32083;47.360;9.650;2023-01-30T18:39:59;3.30;99.90
46378;DHT22;32083;47.360;9.650;2023-01-30T18:42:25;3.30;99.90
46378;DHT22;32083;47.360;9.650;2023-01-30T18:44:51;3.30;99.90
46378;DHT22;32083;47.360;9.650;2023-01-30T18:47:17;3.40;99.90
46378;DHT22;32083;47.360;9.650;2023-01-30T18:49:43;3.30;99.90
46378;DHT22;32083;47.360;9.650;2023-01-30T18:52:09;3.30;99.90
46378;DHT22;32083;47.360;9.650;2023-01-30T18:54:35;3.30;99.90
46378;DHT22;32083;47.360;9.650;2023-01-30T18:57:02;3.30;99.90
46378;DHT22;32083;47.360;9.650;2023-01-30T18:59:28;3.20;99.90
46378;DHT22;32083;47.360;9.650;2023-01-30T19:01:54;3.20;99.90
46378;DHT22;32083;47.360;9.650;2023-01-30T19:04:19;3.20;99.90
46378;DHT22;32083;47.360;9.650;2023-01-30T19:06:45;3.20;99.90
46378;DHT22;32083;47.360;9.650;2023-01-30T19:09:13;3.40;99.90